Terminal Aerodrome Forecast
Issued by NWS

Home | Current Version | Previous Version | Text Only | Print | Product List | Glossary On
Versions: 1 2 3 4 5 6 7 8 9 10 11 12 13 14 15
000
FTUS46 KMTR 221700
TAFOAK
TAF
KOAK 221720Z 2218/2324 25004KT P6SM FEW013
     FM222000 27015KT P6SM FEW015
     FM230300 28011KT P6SM FEW015
     FM230500 27008KT P6SM BKN015
     FM230900 27005KT P6SM OVC007
     FM231900 30010KT P6SM FEW015=

USA.gov is the U.S. government's official web portal to all federal, state and local government web resources and services.